createdAt,value
2022-10-05T00:00:45.531Z,25.36
2022-10-05T00:03:48.701Z,25.09
2022-10-05T00:07:03.702Z,25.15
2022-10-05T00:10:13.384Z,25.10
2022-10-05T00:13:19.070Z,24.85
2022-10-05T00:16:22.440Z,24.56
2022-10-05T00:19:39.685Z,24.75
2022-10-05T00:22:45.353Z,24.36
2022-10-05T00:25:50.223Z,24.27
2022-10-05T00:28:54.131Z,24.15
2022-10-05T00:31:57.225Z,23.96
2022-10-05T00:35:02.920Z,23.70
2022-10-05T00:38:05.988Z,23.33
2022-10-05T00:41:10.637Z,23.84
2022-10-05T00:44:44.890Z,23.55
2022-10-05T00:47:50.798Z,23.46
2022-10-05T00:51:24.424Z,23.46
2022-10-05T00:54:32.947Z,23.17
2022-10-05T00:57:42.975Z,23.21
2022-10-05T01:00:55.169Z,23.76
2022-10-05T01:04:18.898Z,23.45
2022-10-05T01:07:25.069Z,23.47
2022-10-05T01:10:39.472Z,23.19
2022-10-05T01:13:54.499Z,23.29
2022-10-05T01:17:21.298Z,23.22
2022-10-05T01:20:32.135Z,22.79
2022-10-05T01:23:47.246Z,22.75
2022-10-05T01:27:35.293Z,23.21
2022-10-05T01:30:54.752Z,22.98
2022-10-05T01:34:32.164Z,22.89
2022-10-05T01:37:42.177Z,22.22
2022-10-05T01:41:03.298Z,22.34
2022-10-05T01:44:23.293Z,22.26
2022-10-05T01:47:57.959Z,22.29
2022-10-05T01:51:28.312Z,22.36
2022-10-05T01:54:37.673Z,22.41
2022-10-05T01:57:58.898Z,22.35
2022-10-05T02:01:26.826Z,22.29
2022-10-05T02:05:01.956Z,22.23
2022-10-05T02:08:16.370Z,22.00
2022-10-05T02:11:19.672Z,22.01
2022-10-05T02:14:27.752Z,22.11
2022-10-05T02:17:39.605Z,22.07
2022-10-05T02:20:43.802Z,21.84
2022-10-05T02:23:47.377Z,21.81
2022-10-05T02:26:52.335Z,21.78
2022-10-05T02:30:00.870Z,21.90
2022-10-05T02:33:11.363Z,21.80
2022-10-05T02:36:18.656Z,21.87
2022-10-05T02:39:48.298Z,21.91
2022-10-05T02:43:05.297Z,21.46
2022-10-05T02:46:30.587Z,21.30
2022-10-05T02:49:56.971Z,21.41
2022-10-05T02:53:22.964Z,21.27
2022-10-05T02:56:42.110Z,21.14
2022-10-05T02:59:50.558Z,20.98
2022-10-05T03:03:11.323Z,20.77
2022-10-05T03:06:20.460Z,20.75
2022-10-05T03:09:29.933Z,20.89
2022-10-05T03:12:41.948Z,20.93
2022-10-05T03:16:06.854Z,20.56
2022-10-05T03:19:37.084Z,20.37
2022-10-05T03:22:54.112Z,20.44
2022-10-05T03:26:22.200Z,20.24
2022-10-05T03:29:28.039Z,20.25
2022-10-05T03:32:59.778Z,20.17
2022-10-05T03:36:23.962Z,20.31
2022-10-05T03:39:50.529Z,20.37
2022-10-05T03:43:05.813Z,20.78
2022-10-05T03:46:37.999Z,20.60
2022-10-05T03:49:47.058Z,19.87
2022-10-05T03:52:53.559Z,20.03
2022-10-05T03:56:11.141Z,19.94
2022-10-05T03:59:20.512Z,19.92
2022-10-05T04:02:34.071Z,20.25
2022-10-05T04:05:59.276Z,20.00
2022-10-05T04:09:19.393Z,19.79
2022-10-05T04:12:33.506Z,19.95
2022-10-05T04:16:00.964Z,19.71
2022-10-05T04:19:22.002Z,20.10
2022-10-05T04:22:30.732Z,19.95
2022-10-05T04:25:41.506Z,19.95
2022-10-05T04:28:54.729Z,19.63
2022-10-05T04:32:18.055Z,19.69
2022-10-05T04:35:27.434Z,19.50
2022-10-05T04:38:39.137Z,19.35
2022-10-05T04:41:42.157Z,19.58
2022-10-05T04:45:24.948Z,19.42
2022-10-05T04:48:27.979Z,19.49
2022-10-05T04:51:53.010Z,19.65
2022-10-05T04:55:26.407Z,19.62
2022-10-05T04:58:42.594Z,19.37
2022-10-05T05:02:23.107Z,19.19
2022-10-05T05:05:31.568Z,19.18
2022-10-05T05:08:49.841Z,19.03
2022-10-05T05:12:11.892Z,18.62
2022-10-05T05:15:29.980Z,18.89
2022-10-05T05:18:51.466Z,18.77
2022-10-05T05:22:01.495Z,18.71
2022-10-05T05:25:26.106Z,18.74
2022-10-05T05:28:37.014Z,18.77
2022-10-05T05:31:50.218Z,19.34
2022-10-05T05:35:24.625Z,19.26
2022-10-05T05:38:30.595Z,18.67
2022-10-05T05:41:39.846Z,18.72
2022-10-05T05:44:50.409Z,18.98
2022-10-05T05:47:54.989Z,19.39
2022-10-05T05:51:07.299Z,19.16
2022-10-05T05:54:16.635Z,19.28
2022-10-05T05:57:26.995Z,19.05
2022-10-05T06:00:36.872Z,18.77
2022-10-05T06:03:47.727Z,18.65
2022-10-05T06:06:53.066Z,18.74
2022-10-05T06:10:14.455Z,18.60
2022-10-05T06:13:26.447Z,18.67
2022-10-05T06:16:41.845Z,18.45
2022-10-05T06:19:46.823Z,18.21
2022-10-05T06:22:50.689Z,18.43
2022-10-05T06:26:10.923Z,18.73
2022-10-05T06:29:23.579Z,18.76
2022-10-05T06:32:39.267Z,18.79
2022-10-05T06:35:59.516Z,18.72
2022-10-05T06:39:08.566Z,18.56
2022-10-05T06:42:52.603Z,18.52
2022-10-05T06:46:05.066Z,18.57
2022-10-05T06:49:21.322Z,18.73
2022-10-05T06:52:36.807Z,18.71
2022-10-05T06:55:49.145Z,18.64
2022-10-05T07:03:06.262Z,18.44
2022-10-05T07:06:18.084Z,18.35
2022-10-05T07:09:33.267Z,18.50
2022-10-05T07:13:07.310Z,18.48
2022-10-05T07:16:29.425Z,18.29
2022-10-05T07:19:50.518Z,18.47
2022-10-05T07:23:07.335Z,18.59
2022-10-05T07:26:19.753Z,18.43
2022-10-05T07:29:29.310Z,18.34
2022-10-05T07:32:41.140Z,18.37
2022-10-05T07:35:47.249Z,18.30
2022-10-05T07:39:14.219Z,18.33
2022-10-05T07:42:32.192Z,18.31
2022-10-05T07:46:13.518Z,18.04
2022-10-05T07:49:46.677Z,17.81
2022-10-05T07:53:03.905Z,17.87
2022-10-05T07:56:23.062Z,17.83
2022-10-05T07:59:35.036Z,17.69
2022-10-05T08:02:59.365Z,17.82
2022-10-05T08:06:03.973Z,17.77
2022-10-05T08:09:25.577Z,17.53
2022-10-05T08:12:33.398Z,17.79
2022-10-05T08:15:43.868Z,17.82
2022-10-05T08:18:49.923Z,17.69
2022-10-05T08:22:01.454Z,17.71
2022-10-05T08:25:07.174Z,17.72
2022-10-05T08:28:43.374Z,17.91
2022-10-05T08:31:50.152Z,18.02
2022-10-05T08:35:14.281Z,17.85
2022-10-05T08:38:33.405Z,17.50
2022-10-05T08:41:57.361Z,17.39
2022-10-05T08:45:44.758Z,17.77
2022-10-05T08:49:24.461Z,17.89
2022-10-05T08:52:42.363Z,17.37
2022-10-05T08:56:09.934Z,17.39
2022-10-05T08:59:20.008Z,17.49
2022-10-05T09:02:45.811Z,17.78
2022-10-05T09:06:27.108Z,17.66
2022-10-05T09:09:48.882Z,17.40
2022-10-05T09:13:29.115Z,17.53
2022-10-05T09:16:53.735Z,17.45
2022-10-05T09:20:22.485Z,17.36
2022-10-05T09:23:40.686Z,17.39
2022-10-05T09:27:04.664Z,17.07
2022-10-05T09:30:26.659Z,17.15
2022-10-05T09:33:50.937Z,16.97
2022-10-05T09:37:11.945Z,16.96
2022-10-05T09:40:14.930Z,17.12
2022-10-05T09:43:23.770Z,17.34
2022-10-05T09:46:45.886Z,17.08
2022-10-05T09:50:03.866Z,17.28
2022-10-05T09:53:23.290Z,16.98
2022-10-05T09:57:00.972Z,16.91
2022-10-05T10:00:10.177Z,17.45
2022-10-05T10:03:22.273Z,17.34
2022-10-05T10:06:55.989Z,17.41
2022-10-05T10:10:35.079Z,16.94
2022-10-05T10:13:49.011Z,16.72
2022-10-05T10:17:01.024Z,17.14
2022-10-05T10:20:19.072Z,17.06
2022-10-05T10:23:39.944Z,17.03
2022-10-05T10:27:12.116Z,16.78
2022-10-05T10:30:54.157Z,16.77
2022-10-05T10:34:19.521Z,16.79
2022-10-05T10:37:47.035Z,17.01
2022-10-05T10:40:56.434Z,16.93
2022-10-05T10:44:36.771Z,17.16
2022-10-05T10:48:08.809Z,16.71
2022-10-05T10:51:27.799Z,17.14
2022-10-05T10:54:47.410Z,17.17
2022-10-05T10:58:13.706Z,17.06
2022-10-05T11:01:57.204Z,16.94
2022-10-05T11:05:28.788Z,16.77
2022-10-05T11:08:54.169Z,17.24
2022-10-05T11:11:57.214Z,17.19
2022-10-05T11:15:37.528Z,17.12
2022-10-05T11:18:48.399Z,16.83
2022-10-05T11:22:16.081Z,16.58
2022-10-05T11:25:40.547Z,16.91
2022-10-05T11:29:22.461Z,16.79
2022-10-05T11:32:45.488Z,16.85
2022-10-05T11:36:07.395Z,16.78
2022-10-05T11:39:30.453Z,16.65
2022-10-05T11:42:36.522Z,16.70
2022-10-05T11:46:01.649Z,16.85
2022-10-05T11:49:07.665Z,16.73
2022-10-05T11:52:20.004Z,16.66
2022-10-05T11:55:27.837Z,16.53
2022-10-05T11:58:54.914Z,16.72
2022-10-05T12:02:01.983Z,16.46
2022-10-05T12:05:25.449Z,16.46
2022-10-05T12:09:05.552Z,16.47
2022-10-05T12:12:17.347Z,16.42
2022-10-05T12:15:40.490Z,16.64
2022-10-05T12:18:52.737Z,16.49
2022-10-05T12:22:10.907Z,16.94
2022-10-05T12:25:37.352Z,17.04
2022-10-05T12:29:18.562Z,16.93
2022-10-05T12:32:59.511Z,16.75
2022-10-05T12:36:12.532Z,16.81
2022-10-05T12:39:18.204Z,17.07
2022-10-05T12:42:58.087Z,16.74
2022-10-05T12:46:27.471Z,16.47
2022-10-05T12:49:39.814Z,16.56
2022-10-05T12:53:19.993Z,16.65
2022-10-05T12:56:37.974Z,16.37
2022-10-05T12:59:49.914Z,16.94
2022-10-05T13:03:02.710Z,17.21
2022-10-05T13:06:50.148Z,17.13
2022-10-05T13:10:12.711Z,17.51
2022-10-05T13:13:21.635Z,17.84
2022-10-05T13:16:36.509Z,17.93
2022-10-05T13:19:48.708Z,18.10
2022-10-05T13:22:58.662Z,18.37
2022-10-05T13:26:09.702Z,18.35
2022-10-05T13:29:29.975Z,18.88
2022-10-05T13:32:39.957Z,19.35
2022-10-05T13:35:56.770Z,19.77
2022-10-05T13:39:08.675Z,20.04
2022-10-05T13:42:37.159Z,20.65
2022-10-05T13:45:55.847Z,20.56
2022-10-05T13:49:21.384Z,20.98
2022-10-05T13:52:30.128Z,20.93
2022-10-05T13:55:54.386Z,21.09
2022-10-05T13:59:03.111Z,21.52
2022-10-05T14:02:10.386Z,21.87
2022-10-05T14:05:19.648Z,21.84
2022-10-05T14:08:27.920Z,21.64
2022-10-05T14:11:34.002Z,22.00
2022-10-05T14:14:53.433Z,21.99
2022-10-05T14:17:56.597Z,22.30
2022-10-05T14:21:10.407Z,22.69
2022-10-05T14:24:43.284Z,22.72
2022-10-05T14:28:07.101Z,22.74
2022-10-05T14:31:28.521Z,22.95
2022-10-05T14:34:44.989Z,23.02
2022-10-05T14:38:03.798Z,23.13
2022-10-05T14:41:17.651Z,23.43
2022-10-05T14:47:54.436Z,24.06
2022-10-05T14:51:03.895Z,23.83
2022-10-05T14:55:01.196Z,23.90
2022-10-05T14:58:19.724Z,24.07
2022-10-05T15:01:31.153Z,24.20
2022-10-05T15:04:57.279Z,24.44
2022-10-05T15:08:14.781Z,24.68
2022-10-05T15:11:39.301Z,24.79
2022-10-05T15:14:45.356Z,25.17
2022-10-05T15:17:54.437Z,25.38
2022-10-05T15:21:15.791Z,25.11
2022-10-05T15:24:28.331Z,25.32
2022-10-05T15:28:00.937Z,25.23
2022-10-05T15:31:18.479Z,25.81
2022-10-05T15:34:33.567Z,26.23
2022-10-05T15:37:45.466Z,25.79
2022-10-05T15:41:19.160Z,26.09
2022-10-05T15:44:28.155Z,26.60
2022-10-05T15:47:57.164Z,26.78
2022-10-05T15:51:03.265Z,26.69
2022-10-05T15:54:22.195Z,26.68
2022-10-05T15:57:55.860Z,26.88
2022-10-05T16:01:06.391Z,27.80
2022-10-05T16:04:40.592Z,27.44
2022-10-05T16:07:50.410Z,27.94
2022-10-05T16:10:53.448Z,28.35
2022-10-05T16:14:28.966Z,27.84
2022-10-05T16:18:07.453Z,28.43
2022-10-05T16:21:10.478Z,27.59
2022-10-05T16:24:40.768Z,28.09
2022-10-05T16:28:22.503Z,27.84
2022-10-05T16:31:33.357Z,28.88
2022-10-05T16:34:55.347Z,29.11
2022-10-05T16:38:07.647Z,28.53
2022-10-05T16:41:31.530Z,28.79
2022-10-05T16:44:49.988Z,29.00
2022-10-05T16:48:36.428Z,29.94
2022-10-05T16:51:51.929Z,29.33
2022-10-05T16:54:58.238Z,27.97
2022-10-05T16:58:05.459Z,27.72
2022-10-05T17:01:31.225Z,28.43
2022-10-05T17:04:53.763Z,28.45
2022-10-05T17:08:02.245Z,28.64
2022-10-05T17:11:26.715Z,27.64
2022-10-05T17:14:35.764Z,26.84
2022-10-05T17:18:10.977Z,26.56
2022-10-05T17:21:41.184Z,28.06
2022-10-05T17:25:07.439Z,29.36
2022-10-05T17:28:19.739Z,29.68
2022-10-05T17:31:22.952Z,28.99
2022-10-05T17:34:30.789Z,29.12
2022-10-05T17:37:36.873Z,29.43
2022-10-05T17:40:40.212Z,29.04
2022-10-05T17:44:14.862Z,29.06
2022-10-05T17:47:56.167Z,28.61
2022-10-05T17:50:59.512Z,29.13
2022-10-05T17:54:21.862Z,29.35
2022-10-05T17:57:29.084Z,29.60
2022-10-05T18:01:05.563Z,29.78
2022-10-05T18:04:14.820Z,29.14
2022-10-05T18:07:23.443Z,29.49
2022-10-05T18:10:30.164Z,29.95
2022-10-05T18:13:40.164Z,29.48
2022-10-05T18:17:01.698Z,29.12
2022-10-05T18:20:33.626Z,29.42
2022-10-05T18:23:37.468Z,29.38
2022-10-05T18:27:18.919Z,28.46
2022-10-05T18:30:25.169Z,28.64
2022-10-05T18:34:22.133Z,28.46
2022-10-05T18:37:46.412Z,28.63
2022-10-05T18:41:00.700Z,28.65
2022-10-05T18:44:22.144Z,28.43
2022-10-05T18:47:30.829Z,28.39
2022-10-05T18:50:42.622Z,28.76
2022-10-05T18:54:33.331Z,29.30
2022-10-05T18:57:54.090Z,28.67
2022-10-05T19:01:13.662Z,28.16
2022-10-05T19:04:29.053Z,28.32
2022-10-05T19:07:47.031Z,28.66
2022-10-05T19:11:19.893Z,28.83
2022-10-05T19:14:38.468Z,29.00
2022-10-05T19:17:47.124Z,28.99
2022-10-05T19:21:15.176Z,29.27
2022-10-05T19:24:39.780Z,29.11
2022-10-05T19:28:01.125Z,29.31
2022-10-05T19:31:09.582Z,29.02
2022-10-05T19:34:15.643Z,28.85
2022-10-05T19:37:26.441Z,29.46
2022-10-05T19:40:43.535Z,29.33
2022-10-05T19:44:16.811Z,29.10
2022-10-05T19:47:47.360Z,29.15
2022-10-05T19:50:59.301Z,29.04
2022-10-05T19:54:07.493Z,28.93
2022-10-05T19:57:19.396Z,28.99
2022-10-05T20:00:34.353Z,28.99
2022-10-05T20:03:37.977Z,29.08
2022-10-05T20:06:41.053Z,28.74
2022-10-05T20:10:15.110Z,29.67
2022-10-05T20:13:22.912Z,29.48
2022-10-05T20:16:26.009Z,29.60
2022-10-05T20:19:31.999Z,29.76
2022-10-05T20:22:39.907Z,29.77
2022-10-05T20:25:43.189Z,29.74
2022-10-05T20:28:46.358Z,28.78
2022-10-05T20:31:50.183Z,29.29
2022-10-05T20:34:53.242Z,29.46
2022-10-05T20:37:57.111Z,29.77
2022-10-05T20:41:00.140Z,30.10
2022-10-05T20:44:03.287Z,29.77
2022-10-05T20:47:07.422Z,30.10
2022-10-05T20:50:11.617Z,30.45
2022-10-05T20:53:14.835Z,30.13
2022-10-05T20:56:18.036Z,30.16
2022-10-05T20:59:21.173Z,30.09
2022-10-05T21:02:24.459Z,30.03
2022-10-05T21:05:27.461Z,30.28
2022-10-05T21:08:31.306Z,30.56
2022-10-05T21:11:34.567Z,30.40
2022-10-05T21:14:38.371Z,30.47
2022-10-05T21:17:41.362Z,30.15
2022-10-05T21:20:44.403Z,29.39
2022-10-05T21:23:48.931Z,29.76
2022-10-05T21:26:51.974Z,29.95
2022-10-05T21:29:55.028Z,29.92
2022-10-05T21:32:58.264Z,29.88
2022-10-05T21:36:01.553Z,29.79
2022-10-05T21:39:04.636Z,30.13
2022-10-05T21:42:09.746Z,29.76
2022-10-05T21:45:12.833Z,29.99
2022-10-05T21:48:17.237Z,29.70
2022-10-05T21:51:20.924Z,29.38
2022-10-05T21:54:24.188Z,29.81
2022-10-05T21:57:27.306Z,29.68
2022-10-05T22:00:31.236Z,29.14
2022-10-05T22:03:34.560Z,30.05
2022-10-05T22:06:38.146Z,30.87
2022-10-05T22:09:41.212Z,30.39
2022-10-05T22:12:44.457Z,30.30
2022-10-05T22:15:47.815Z,30.66
2022-10-05T22:18:51.172Z,30.23
2022-10-05T22:21:54.302Z,29.85
2022-10-05T22:24:57.447Z,29.20
2022-10-05T22:28:02.255Z,29.78
2022-10-05T22:31:06.909Z,29.48
2022-10-05T22:34:09.952Z,28.76
2022-10-05T22:37:13.655Z,28.64
2022-10-05T22:40:16.854Z,28.52
2022-10-05T22:43:19.872Z,28.70
2022-10-05T22:46:23.002Z,28.81
2022-10-05T22:49:26.257Z,28.79
2022-10-05T22:52:29.685Z,28.83
2022-10-05T22:55:32.757Z,28.39
2022-10-05T22:58:36.565Z,28.64
2022-10-05T23:01:39.660Z,28.56
2022-10-05T23:04:42.785Z,28.54
2022-10-05T23:07:47.511Z,28.19
2022-10-05T23:10:50.661Z,28.19
2022-10-05T23:13:55.142Z,28.09
2022-10-05T23:16:58.224Z,27.69
2022-10-05T23:20:01.269Z,27.68
2022-10-05T23:23:04.362Z,27.62
2022-10-05T23:26:09.424Z,27.04
2022-10-05T23:29:12.541Z,26.82
2022-10-05T23:32:15.785Z,26.78
2022-10-05T23:35:18.828Z,26.61
2022-10-05T23:38:21.928Z,26.63
2022-10-05T23:41:25.175Z,26.53
2022-10-05T23:44:28.212Z,26.54
2022-10-05T23:47:31.355Z,26.27
2022-10-05T23:50:34.416Z,25.88
2022-10-05T23:53:37.816Z,25.74
2022-10-05T23:56:40.813Z,25.65
2022-10-05T23:59:43.847Z,25.70
